CDT,Max TemperatureF,Mean TemperatureF,Min TemperatureF,Max Dew PointF,MeanDew PointF,Min DewpointF,Max Humidity, Mean Humidity, Min Humidity, Max Sea Level PressureIn, Mean Sea Level PressureIn, Min Sea Level PressureIn, Max VisibilityMiles, Mean VisibilityMiles, Min VisibilityMiles, Max Wind SpeedMPH, Mean Wind SpeedMPH, Max Gust SpeedMPH,PrecipitationIn, CloudCover, Events, WindDirDegrees
2011-9-1,93,82,71,74,71,68,93,73,52,29.84,29.72,29.65,10,9,4,18,8,22,0.00,0,,160
2011-9-2,80,76,71,73,68,63,94,77,58,29.91,29.84,29.69,10,9,5,14,6,18,0.01,4,Rain,328
2011-9-3,81,70,62,68,60,49,94,73,48,29.97,29.88,29.83,10,10,8,20,6,28,0.02,4,Rain-Thunderstorm,321
2011-9-4,70,62,54,52,49,45,83,66,42,30.19,30.09,29.98,10,10,10,17,11,25,0.00,3,,330
2011-9-5,73,60,48,51,47,43,93,62,38,30.25,30.18,30.13,10,10,8,8,3,,0.01,1,,197
2011-9-6,73,62,52,50,48,46,80,59,38,30.22,30.19,30.16,10,10,10,12,6,16,0.00,1,,175
2011-9-7,79,65,52,57,51,48,86,63,39,30.31,30.26,30.22,10,10,6,7,3,,0.00,0,,4
2011-9-8,84,68,55,61,58,54,97,68,39,30.30,30.22,30.11,10,10,7,10,3,17,0.00,0,,353
2011-9-9,88,74,61,62,59,56,84,61,36,30.10,30.03,29.97,10,10,6,12,5,17,0.00,0,,354
2011-9-10,87,74,62,63,61,59,90,68,39,30.06,30.01,29.98,10,10,7,8,4,,0.00,0,,9
2011-9-11,89,74,61,64,59,54,93,64,31,30.00,29.96,29.91,10,10,7,9,5,16,0.00,0,,250
2011-9-12,89,76,61,60,56,47,86,59,34,29.90,29.79,29.65,10,10,7,22,8,33,0.00,0,,247
2011-9-13,71,62,53,47,43,40,74,55,33,30.06,30.00,29.91,10,10,8,16,9,22,0.00,1,,310
2011-9-14,60,50,43,35,33,29,71,53,33,30.38,30.25,30.07,10,10,10,17,13,25,0.00,1,,339
2011-9-15,59,46,36,42,32,23,97,61,26,30.46,30.40,30.32,10,10,9,6,2,,0.00,0,,83
2011-9-16,63,54,48,41,36,33,77,55,39,30.33,30.28,30.22,10,10,10,17,8,24,0.00,6,,158
2011-9-17,69,58,48,48,43,40,80,58,37,30.23,30.16,30.10,10,10,10,18,10,24,0.00,8,,144
2011-9-18,60,56,53,57,55,49,100,91,72,30.09,29.97,29.93,10,5,0,12,6,,0.09,7,Fog-Rain,179
2011-9-19,75,62,48,54,49,38,100,83,26,30.04,29.97,29.92,10,4,0,10,2,,0.01,3,Fog,253
2011-9-20,73,63,55,55,47,41,83,60,41,29.92,29.76,29.68,10,10,4,21,12,41,0.08,5,Rain,202
2011-9-21,61,56,52,52,49,45,94,81,68,30.06,29.85,29.68,10,9,3,21,14,30,0.03,8,Rain,279
2011-9-22,55,50,46,47,42,38,93,77,57,30.18,30.11,30.05,10,10,2,12,7,17,0.01,8,Rain,360
2011-9-23,60,50,44,44,42,41,93,72,53,30.19,30.13,30.08,10,10,8,6,1,,0.00,3,,64
2011-9-24,63,51,41,47,43,40,96,79,52,30.10,30.06,30.03,10,9,5,10,3,,0.00,1,,71
2011-9-25,66,54,44,50,46,42,96,75,48,30.05,29.99,29.91,10,9,7,12,3,,0.00,6,Rain,36
2011-9-26,73,60,51,53,50,48,90,72,49,29.92,29.87,29.78,10,10,8,18,9,28,0.00,6,,3
2011-9-27,68,62,59,59,53,48,93,74,62,29.93,29.87,29.82,10,10,9,10,7,,0.00,6,,346
2011-9-28,81,66,51,57,53,51,100,77,36,29.86,29.82,29.74,10,5,0,6,1,,0.00,1,Fog,279
2011-9-29,66,62,57,53,45,39,75,55,37,30.09,29.86,29.71,10,10,10,29,14,41,0.00,2,Rain,310
2011-9-30,63,56,46,45,39,31,80,59,30,30.30,30.20,30.11,10,10,10,14,10,24,0.00,0,,352